Time;durP1;ratioP1;P1;durP2;ratioP2;P2;SDS_P1;SDS_P2;PMS_P1;PMS_P2;Temp;Humidity;BMP_temperature;BMP_pressure;BME280_temperature;BME280_humidity;BME280_pressure;Samples;Min_cycle;Max_cycle;Signal;HPM_P1;HPM_P2
2022/03/03 00:00:31;;;;;;;11.97;8.90;;;0.10;99.90;;;;;;5010876;28;20207;-51
2022/03/03 00:02:59;;;;;;;12.57;9.70;;;0.10;99.90;;;;;;5010353;28;20670;-51
2022/03/03 00:05:27;;;;;;;13.37;9.33;;;0.10;99.90;;;;;;5010780;28;20233;-51
2022/03/03 00:07:55;;;;;;;14.77;9.47;;;0.10;99.90;;;;;;5010821;28;20662;-50
2022/03/03 00:10:23;;;;;;;12.97;9.90;;;0.10;99.90;;;;;;5011489;28;20231;-51
2022/03/03 00:12:51;;;;;;;15.90;9.70;;;0.10;99.90;;;;;;5010019;28;20213;-51
2022/03/03 00:15:21;;;;;;;12.93;9.07;;;0.10;99.90;;;;;;5011229;28;20254;-51
2022/03/03 00:17:49;;;;;;;13.83;9.97;;;0.10;99.90;;;;;;5010558;28;20223;-51
2022/03/03 00:20:17;;;;;;;13.67;9.33;;;0.10;99.90;;;;;;5010609;28;20262;-51
2022/03/03 00:22:45;;;;;;;13.53;9.50;;;0.10;99.90;;;;;;5010453;28;20203;-52
2022/03/03 00:25:14;;;;;;;10.23;9.13;;;0.10;99.90;;;;;;5010305;28;20209;-51
2022/03/03 00:27:42;;;;;;;14.63;9.77;;;0.10;99.90;;;;;;5010014;28;20224;-51
2022/03/03 00:30:11;;;;;;;15.03;9.47;;;0.10;99.90;;;;;;5010472;28;20266;-51
2022/03/03 00:32:41;;;;;;;12.83;9.63;;;0.10;99.90;;;;;;5009907;28;20270;-50
2022/03/03 00:35:10;;;;;;;12.93;9.93;;;0.00;99.90;;;;;;5010320;28;20273;-51
2022/03/03 00:37:39;;;;;;;13.67;10.20;;;0.00;99.90;;;;;;5010036;28;20903;-51
2022/03/03 00:40:09;;;;;;;13.17;10.20;;;0.00;99.90;;;;;;5010235;28;20216;-51
2022/03/03 00:42:37;;;;;;;14.47;10.00;;;0.00;99.90;;;;;;5009929;28;20207;-51
2022/03/03 00:45:07;;;;;;;11.83;9.33;;;-0.10;99.90;;;;;;5010158;28;20242;-51
2022/03/03 00:47:35;;;;;;;13.90;10.07;;;-0.10;99.90;;;;;;5010367;28;20234;-51
2022/03/03 00:50:05;;;;;;;16.90;10.57;;;-0.10;99.90;;;;;;5010368;28;20555;-51
2022/03/03 00:52:34;;;;;;;14.67;9.77;;;-0.10;99.90;;;;;;5009347;28;20222;-51
2022/03/03 00:55:02;;;;;;;13.93;10.23;;;-0.10;99.90;;;;;;5010368;28;20213;-51
2022/03/03 00:57:31;;;;;;;14.73;10.17;;;-0.10;99.90;;;;;;5009708;28;20683;-51
2022/03/03 00:59:59;;;;;;;14.97;10.43;;;-0.10;99.90;;;;;;5010160;28;20211;-51
2022/03/03 01:02:27;;;;;;;14.73;10.63;;;-0.10;99.90;;;;;;5008851;28;20208;-51
2022/03/03 01:04:56;;;;;;;18.07;11.13;;;-0.10;99.90;;;;;;5008885;28;20782;-51
2022/03/03 01:07:26;;;;;;;19.07;11.10;;;-0.10;99.90;;;;;;5009954;28;20229;-51
2022/03/03 01:09:54;;;;;;;15.73;11.13;;;-0.20;99.90;;;;;;5009923;28;20215;-51
2022/03/03 01:12:22;;;;;;;17.93;12.00;;;-0.20;99.90;;;;;;5009434;28;20286;-51
2022/03/03 01:14:51;;;;;;;13.13;10.50;;;-0.20;99.90;;;;;;5009627;28;20207;-51
2022/03/03 01:17:19;;;;;;;17.87;11.40;;;-0.20;99.90;;;;;;5009916;28;20643;-51
2022/03/03 01:19:47;;;;;;;13.70;11.30;;;-0.20;99.90;;;;;;5009690;28;20203;-51
2022/03/03 01:22:16;;;;;;;17.80;10.97;;;-0.20;99.90;;;;;;5009534;28;20255;-51
2022/03/03 01:24:46;;;;;;;15.80;11.20;;;-0.30;99.90;;;;;;5010081;28;20703;-51
2022/03/03 01:27:14;;;;;;;16.53;11.53;;;-0.30;99.90;;;;;;5010970;28;20266;-51
2022/03/03 01:29:42;;;;;;;15.80;11.47;;;-0.30;99.90;;;;;;5010707;28;20266;-50
2022/03/03 01:32:10;;;;;;;18.60;11.73;;;-0.30;99.90;;;;;;5009214;28;20222;-51
2022/03/03 01:34:39;;;;;;;12.80;10.60;;;-0.40;99.90;;;;;;5010033;28;20206;-51
2022/03/03 01:37:07;;;;;;;12.47;10.30;;;-0.40;99.90;;;;;;5009490;28;20233;-51
2022/03/03 01:39:36;;;;;;;15.13;10.53;;;-0.40;99.90;;;;;;5009566;28;20216;-51
2022/03/03 01:42:07;;;;;;;18.80;11.60;;;-0.40;99.90;;;;;;5008941;28;20211;-50
2022/03/03 01:44:35;;;;;;;15.70;11.13;;;-0.40;99.90;;;;;;5012371;28;20820;-51
2022/03/03 01:47:04;;;;;;;14.87;10.70;;;-0.40;99.90;;;;;;5013542;28;20250;-51
2022/03/03 01:49:32;;;;;;;20.40;11.47;;;-0.40;99.90;;;;;;5013087;28;20587;-51
2022/03/03 01:52:00;;;;;;;17.43;11.73;;;-0.40;99.90;;;;;;5012844;28;20270;-51
2022/03/03 01:54:28;;;;;;;17.53;11.20;;;-0.40;99.90;;;;;;5013059;28;20239;-50
2022/03/03 01:56:56;;;;;;;16.40;11.27;;;-0.40;99.90;;;;;;5013716;28;20240;-51
2022/03/03 01:59:27;;;;;;;16.67;11.47;;;-0.40;99.90;;;;;;5013885;28;20261;-49
2022/03/03 02:01:55;;;;;;;14.37;10.43;;;-0.50;99.90;;;;;;5013502;28;20187;-50
2022/03/03 02:04:23;;;;;;;16.63;11.57;;;-0.50;99.90;;;;;;5012343;28;20234;-50
2022/03/03 02:06:51;;;;;;;11.80;10.43;;;-0.50;99.90;;;;;;5013063;28;20227;-51
2022/03/03 02:09:20;;;;;;;14.47;11.17;;;-0.50;99.90;;;;;;5012975;28;20308;-51
2022/03/03 02:11:48;;;;;;;14.27;11.23;;;-0.50;99.90;;;;;;5012323;28;20273;-52
2022/03/03 02:14:17;;;;;;;15.93;11.43;;;-0.50;99.90;;;;;;5012539;28;20250;-52
2022/03/03 02:16:46;;;;;;;17.80;11.47;;;-0.50;99.90;;;;;;5012918;28;20228;-52
2022/03/03 02:19:18;;;;;;;15.10;11.13;;;-0.50;99.90;;;;;;5013120;28;20272;-51
2022/03/03 02:21:50;;;;;;;15.80;11.73;;;-0.60;99.90;;;;;;5012637;28;20202;-52
2022/03/03 02:24:20;;;;;;;16.03;11.23;;;-0.60;99.90;;;;;;5012398;28;20261;-51
2022/03/03 02:26:48;;;;;;;17.27;11.80;;;-0.60;99.90;;;;;;5012844;28;20809;-51
2022/03/03 02:29:17;;;;;;;14.53;11.60;;;-0.60;99.90;;;;;;5012449;28;20257;-52
2022/03/03 02:31:45;;;;;;;16.57;11.60;;;-0.70;99.90;;;;;;5012353;28;20659;-51
2022/03/03 02:34:13;;;;;;;15.57;10.87;;;-0.70;99.90;;;;;;5012393;28;20211;-51
2022/03/03 02:36:41;;;;;;;14.83;10.87;;;-0.70;99.90;;;;;;5012539;28;20231;-51
2022/03/03 02:39:11;;;;;;;17.13;11.53;;;-0.70;99.90;;;;;;5012201;28;20794;-51
2022/03/03 02:41:39;;;;;;;14.73;11.60;;;-0.80;99.90;;;;;;5011872;28;20265;-51
2022/03/03 02:44:07;;;;;;;14.17;11.33;;;-0.80;99.90;;;;;;5011879;28;20210;-51
2022/03/03 02:46:35;;;;;;;16.20;11.30;;;-0.80;99.90;;;;;;5012131;28;20289;-51
2022/03/03 02:49:04;;;;;;;16.03;10.80;;;-0.80;99.90;;;;;;5012339;28;20665;-51
2022/03/03 02:51:32;;;;;;;20.47;12.37;;;-0.80;99.90;;;;;;5012248;28;20235;-51
2022/03/03 02:54:01;;;;;;;15.90;12.23;;;-0.80;99.90;;;;;;5011656;28;20207;-51
2022/03/03 02:56:31;;;;;;;18.10;11.93;;;-0.80;99.90;;;;;;5010822;28;20238;-52
2022/03/03 02:58:58;;;;;;;17.73;12.37;;;-0.80;99.90;;;;;;5011974;28;20249;-52
2022/03/03 03:01:26;;;;;;;17.90;12.67;;;-0.80;99.90;;;;;;5012017;28;20723;-51
2022/03/03 03:03:54;;;;;;;16.97;11.63;;;-0.80;99.90;;;;;;5010406;28;20634;-52
2022/03/03 03:06:22;;;;;;;15.63;11.27;;;-0.80;99.90;;;;;;5011556;28;20282;-52
2022/03/03 03:08:51;;;;;;;19.67;13.07;;;-0.80;99.90;;;;;;5011608;28;20265;-51
2022/03/03 03:11:19;;;;;;;18.70;12.30;;;-0.90;99.90;;;;;;5012039;28;20245;-51
2022/03/03 03:13:48;;;;;;;17.50;11.63;;;-1.00;99.90;;;;;;5011062;28;20743;-51
2022/03/03 03:16:16;;;;;;;17.83;12.23;;;-1.00;99.90;;;;;;5011681;28;20234;-50
2022/03/03 03:18:44;;;;;;;20.73;11.77;;;-1.00;99.90;;;;;;5011917;28;20214;-51
2022/03/03 03:21:12;;;;;;;18.30;12.23;;;-0.90;99.90;;;;;;5011667;28;20203;-51
2022/03/03 03:23:40;;;;;;;22.67;12.97;;;-0.90;99.90;;;;;;5011322;28;20238;-51
2022/03/03 03:26:09;;;;;;;19.33;12.20;;;-0.90;99.90;;;;;;5011211;28;20250;-51
2022/03/03 03:28:37;;;;;;;16.63;11.70;;;-0.90;99.90;;;;;;5011891;28;20211;-52
2022/03/03 03:31:06;;;;;;;15.70;11.77;;;-0.90;99.90;;;;;;5010886;28;20257;-51
2022/03/03 03:33:34;;;;;;;15.40;11.80;;;-0.90;99.90;;;;;;5011210;28;20277;-51
2022/03/03 03:36:03;;;;;;;16.87;12.53;;;-0.90;99.90;;;;;;5011604;28;20203;-51
2022/03/03 03:38:31;;;;;;;17.40;12.13;;;-0.90;99.90;;;;;;5011359;28;20265;-51
2022/03/03 03:40:59;;;;;;;19.53;13.23;;;-0.90;99.90;;;;;;5011570;28;20261;-51
2022/03/03 03:43:27;;;;;;;24.13;14.77;;;-0.90;99.90;;;;;;5010101;28;20230;-51
2022/03/03 03:45:55;;;;;;;19.67;13.87;;;-0.90;99.90;;;;;;5011560;28;20211;-51
2022/03/03 03:48:25;;;;;;;21.33;13.70;;;-0.90;99.90;;;;;;5012430;28;20210;-51
2022/03/03 03:50:53;;;;;;;16.17;12.13;;;-1.00;99.90;;;;;;5011972;28;20635;-50
2022/03/03 03:53:21;;;;;;;17.87;12.33;;;-0.90;99.90;;;;;;5010754;28;20254;-51
2022/03/03 03:55:50;;;;;;;19.07;12.53;;;-0.90;99.90;;;;;;5011018;28;20211;-51
2022/03/03 03:58:18;;;;;;;18.70;13.73;;;-0.90;99.90;;;;;;5010494;28;20671;-50
2022/03/03 04:00:46;;;;;;;18.87;12.20;;;-0.90;99.90;;;;;;5010862;28;20276;-50
2022/03/03 04:03:15;;;;;;;17.93;12.50;;;-0.90;99.90;;;;;;5010682;28;20203;-51
2022/03/03 04:05:45;;;;;;;19.50;13.23;;;-0.90;99.90;;;;;;5009922;28;20285;-51
2022/03/03 04:08:14;;;;;;;22.20;14.53;;;-0.90;99.90;;;;;;5010673;28;20238;-51
2022/03/03 04:10:42;;;;;;;19.10;12.63;;;-0.90;99.90;;;;;;5010657;28;20203;-51
2022/03/03 04:13:10;;;;;;;18.20;13.13;;;-0.90;99.90;;;;;;5010382;28;20223;-51
2022/03/03 04:15:38;;;;;;;21.77;13.87;;;-0.90;99.90;;;;;;5010508;28;20211;-51
2022/03/03 04:18:07;;;;;;;19.67;13.03;;;-0.90;99.90;;;;;;5010655;28;20227;-50
2022/03/03 04:20:35;;;;;;;19.73;13.37;;;-0.90;99.90;;;;;;5010352;28;20695;-51
2022/03/03 04:23:04;;;;;;;20.00;13.00;;;-0.90;99.90;;;;;;5010803;28;20206;-51
2022/03/03 04:25:33;;;;;;;20.53;13.50;;;-1.00;99.90;;;;;;5011060;28;20734;-50
2022/03/03 04:28:02;;;;;;;20.23;13.80;;;-1.00;99.90;;;;;;5010980;28;20273;-51
2022/03/03 04:30:30;;;;;;;17.53;11.90;;;-1.00;99.90;;;;;;5010794;28;20207;-51
2022/03/03 04:32:58;;;;;;;18.10;13.17;;;-1.00;99.90;;;;;;5009529;28;20515;-51
2022/03/03 04:35:26;;;;;;;20.20;13.83;;;-1.10;99.90;;;;;;5010247;28;20240;-51
2022/03/03 04:37:54;;;;;;;17.47;12.53;;;-1.10;99.90;;;;;;5010519;28;20315;-51
2022/03/03 04:40:24;;;;;;;19.23;13.07;;;-1.10;99.90;;;;;;5009947;28;20206;-51
2022/03/03 04:42:52;;;;;;;17.23;12.13;;;-1.10;99.90;;;;;;5009722;28;20580;-51
2022/03/03 04:45:20;;;;;;;16.37;12.27;;;-1.20;99.90;;;;;;5009905;28;20621;-51
2022/03/03 04:47:48;;;;;;;19.60;13.17;;;-1.20;99.90;;;;;;5010120;28;20226;-51
2022/03/03 04:50:16;;;;;;;27.30;13.20;;;-1.20;99.90;;;;;;5010125;28;20263;-51
2022/03/03 04:52:44;;;;;;;20.67;12.80;;;-1.10;99.90;;;;;;5009764;28;20257;-51
2022/03/03 04:55:13;;;;;;;17.07;12.07;;;-1.10;99.90;;;;;;5010293;28;20234;-51
2022/03/03 04:57:42;;;;;;;18.60;12.13;;;-1.20;99.90;;;;;;5009918;28;20312;-51
2022/03/03 05:00:11;;;;;;;16.67;11.90;;;-1.20;99.90;;;;;;5009618;28;20230;-51
2022/03/03 05:02:39;;;;;;;16.63;12.33;;;-1.10;99.90;;;;;;5009596;28;20627;-50
2022/03/03 05:05:08;;;;;;;18.20;13.10;;;-1.20;99.90;;;;;;5009291;28;20206;-51
2022/03/03 05:07:36;;;;;;;16.17;12.27;;;-1.20;99.90;;;;;;5010134;28;20231;-51
2022/03/03 05:10:05;;;;;;;17.50;12.33;;;-1.20;99.90;;;;;;5009778;28;20207;-51
2022/03/03 05:12:34;;;;;;;17.97;11.87;;;-1.20;99.90;;;;;;5009387;28;20214;-51
2022/03/03 05:15:04;;;;;;;18.30;12.53;;;-1.20;99.90;;;;;;5010067;28;20836;-51
2022/03/03 05:17:32;;;;;;;18.20;12.17;;;-1.30;99.90;;;;;;5010137;28;20218;-51
2022/03/03 05:20:00;;;;;;;20.50;12.73;;;-1.30;99.90;;;;;;5013497;28;20207;-51
2022/03/03 05:22:29;;;;;;;17.87;12.00;;;-1.30;99.90;;;;;;5013786;28;20210;-51
2022/03/03 05:24:57;;;;;;;19.80;12.40;;;-1.30;99.90;;;;;;5013775;28;20260;-51
2022/03/03 05:27:25;;;;;;;18.47;13.07;;;-1.40;99.90;;;;;;5013834;28;20230;-51
2022/03/03 05:29:54;;;;;;;20.20;13.73;;;-1.40;99.90;;;;;;5013653;28;20211;-51
2022/03/03 05:32:23;;;;;;;20.63;14.07;;;-1.40;99.90;;;;;;5013392;28;20210;-51
2022/03/03 05:34:51;;;;;;;21.10;14.97;;;-1.40;99.90;;;;;;5013642;28;20292;-50
2022/03/03 05:37:23;;;;;;;26.57;18.83;;;-1.40;99.90;;;;;;5013571;28;20226;-49
2022/03/03 05:39:52;;;;;;;32.17;23.17;;;-1.50;99.90;;;;;;5014031;28;20206;-52
2022/03/03 05:42:22;;;;;;;25.83;18.87;;;-1.50;99.90;;;;;;5012748;28;20582;-52
2022/03/03 05:44:52;;;;;;;16.30;12.83;;;-1.50;99.90;;;;;;5013711;28;20629;-52
2022/03/03 05:47:20;;;;;;;20.77;13.00;;;-1.50;99.90;;;;;;5013406;28;20230;-51
2022/03/03 05:49:52;;;;;;;15.97;12.03;;;-1.50;99.90;;;;;;5013638;28;20207;-52
2022/03/03 05:52:20;;;;;;;16.87;12.03;;;-1.50;99.90;;;;;;5012773;28;20214;-51
2022/03/03 05:54:48;;;;;;;16.63;12.87;;;-1.50;99.90;;;;;;5013549;28;20295;-51
2022/03/03 05:57:19;;;;;;;17.20;11.33;;;-1.60;99.90;;;;;;5013068;28;20234;-51
2022/03/03 05:59:50;;;;;;;19.53;12.60;;;-1.60;99.90;;;;;;5013409;28;20187;-52
2022/03/03 06:02:21;;;;;;;17.20;11.77;;;-1.60;99.90;;;;;;5012419;28;20687;-51
2022/03/03 06:04:52;;;;;;;18.90;12.97;;;-1.70;99.90;;;;;;5012037;28;20206;-51
2022/03/03 06:07:25;;;;;;;15.73;11.87;;;-1.60;99.90;;;;;;5013955;28;20281;-51
2022/03/03 06:09:57;;;;;;;17.33;12.20;;;-1.70;99.90;;;;;;5016078;28;20264;-52
2022/03/03 06:12:32;;;;;;;15.77;11.77;;;-1.60;99.90;;;;;;5013156;28;20202;-51
2022/03/03 06:15:04;;;;;;;17.57;11.43;;;-1.50;99.90;;;;;;5012778;28;20231;-51
2022/03/03 06:17:34;;;;;;;19.77;11.90;;;-1.50;99.90;;;;;;5012686;28;20269;-50
2022/03/03 06:20:05;;;;;;;18.50;12.27;;;-1.50;99.90;;;;;;5012838;28;20306;-51
2022/03/03 06:22:34;;;;;;;17.87;11.00;;;-1.50;99.90;;;;;;5012597;28;20225;-52
2022/03/03 06:25:02;;;;;;;18.40;12.80;;;-1.50;99.90;;;;;;5012942;28;20245;-52
2022/03/03 06:27:31;;;;;;;18.83;12.10;;;-1.50;99.90;;;;;;5012395;28;20266;-51
2022/03/03 06:30:00;;;;;;;18.67;12.17;;;-1.50;99.90;;;;;;5012187;28;20207;-51
2022/03/03 06:32:29;;;;;;;18.77;12.77;;;-1.50;99.90;;;;;;5011771;28;20578;-51
2022/03/03 06:34:57;;;;;;;19.07;13.03;;;-1.40;99.90;;;;;;5012478;28;20277;-52
2022/03/03 06:37:27;;;;;;;21.17;12.83;;;-1.40;99.90;;;;;;4997610;28;20259;-51
2022/03/03 06:39:55;;;;;;;18.00;12.80;;;-1.40;99.90;;;;;;5009997;28;20285;-51
2022/03/03 06:42:23;;;;;;;17.43;12.80;;;-1.40;99.90;;;;;;5012123;28;20242;-51
2022/03/03 06:44:52;;;;;;;19.47;13.17;;;-1.40;99.90;;;;;;5011836;28;20214;-51
2022/03/03 06:47:20;;;;;;;16.73;12.60;;;-1.30;99.90;;;;;;5012038;28;20227;-51
2022/03/03 06:49:49;;;;;;;17.93;12.77;;;-1.20;99.90;;;;;;5011572;28;20369;-52
2022/03/03 06:52:20;;;;;;;15.90;11.73;;;-0.80;99.90;;;;;;5012037;28;20214;-52
2022/03/03 06:54:53;;;;;;;15.17;12.30;;;-0.40;99.90;;;;;;5011822;28;20289;-52
2022/03/03 06:57:22;;;;;;;17.57;12.27;;;-0.10;99.90;;;;;;5011895;28;20242;-51
2022/03/03 06:59:52;;;;;;;18.07;13.07;;;0.00;99.90;;;;;;5010905;28;20213;-52
2022/03/03 07:02:21;;;;;;;15.47;12.97;;;0.20;99.90;;;;;;5011350;28;20239;-52
2022/03/03 07:04:51;;;;;;;16.80;12.33;;;0.40;99.90;;;;;;5011907;28;20294;-51
2022/03/03 07:07:20;;;;;;;20.77;12.90;;;0.50;99.90;;;;;;5011520;28;20233;-51
2022/03/03 07:09:51;;;;;;;19.10;13.57;;;0.50;99.90;;;;;;5011997;28;20734;-52
2022/03/03 07:12:21;;;;;;;20.33;13.83;;;0.50;99.90;;;;;;5011043;28;20209;-52
2022/03/03 07:14:49;;;;;;;17.97;13.13;;;0.60;99.90;;;;;;5011912;28;20274;-51
2022/03/03 07:17:25;;;;;;;18.97;13.97;;;0.70;99.90;;;;;;5011547;28;20226;-52
2022/03/03 07:20:03;;;;;;;23.77;15.83;;;0.80;99.90;;;;;;5001359;28;20209;-51
2022/03/03 07:22:37;;;;;;;27.70;17.27;;;1.00;99.90;;;;;;4991664;28;20246;-52
2022/03/03 07:25:10;;;;;;;24.17;17.07;;;1.20;99.90;;;;;;4992060;28;20249;-52
2022/03/03 07:27:42;;;;;;;17.60;13.40;;;1.40;99.90;;;;;;4992154;28;20226;-51
2022/03/03 07:30:13;;;;;;;16.63;13.40;;;1.70;99.90;;;;;;5002325;28;20207;-51
2022/03/03 07:32:51;;;;;;;15.67;13.27;;;1.90;99.90;;;;;;5001735;28;20243;-51
2022/03/03 07:35:23;;;;;;;20.13;15.23;;;2.00;99.90;;;;;;5002982;28;20221;-52
2022/03/03 07:37:56;;;;;;;17.50;13.70;;;2.20;99.90;;;;;;5011057;28;20286;-52
2022/03/03 07:40:28;;;;;;;19.47;13.70;;;2.40;99.90;;;;;;5010695;28;20235;-52
2022/03/03 07:42:57;;;;;;;19.67;14.97;;;2.50;99.90;;;;;;5010028;28;20673;-52
2022/03/03 07:45:26;;;;;;;17.93;14.20;;;2.60;99.90;;;;;;5011079;28;20259;-52
2022/03/03 07:47:56;;;;;;;17.07;14.20;;;2.80;99.90;;;;;;5010083;28;20272;-53
2022/03/03 07:50:26;;;;;;;17.63;13.10;;;2.80;99.90;;;;;;5011654;28;20567;-52
2022/03/03 07:52:55;;;;;;;16.80;13.30;;;2.80;99.90;;;;;;5010434;28;20295;-52
2022/03/03 07:55:23;;;;;;;15.93;13.20;;;2.90;99.90;;;;;;5011095;28;20226;-52
2022/03/03 07:58:26;;;;;;;17.40;14.27;;;3.00;99.90;;;;;;5010712;28;20233;-51
2022/03/03 08:00:55;;;;;;;18.73;14.07;;;3.10;99.90;;;;;;5038011;22;20230;-50
2022/03/03 08:03:24;;;;;;;17.23;14.07;;;3.10;99.90;;;;;;5029974;28;20687;-50
2022/03/03 08:05:55;;;;;;;16.47;13.87;;;3.10;99.90;;;;;;5030824;28;20203;-50
2022/03/03 08:08:25;;;;;;;20.57;16.27;;;2.90;99.90;;;;;;5030479;28;20745;-51
2022/03/03 08:10:58;;;;;;;19.20;15.83;;;2.90;99.90;;;;;;5028368;28;20233;-52
2022/03/03 08:13:29;;;;;;;20.23;15.97;;;2.80;99.90;;;;;;5016827;28;20265;-49
2022/03/03 08:15:57;;;;;;;21.67;16.60;;;2.70;99.90;;;;;;5030440;28;20278;-51
2022/03/03 08:18:29;;;;;;;22.40;16.83;;;2.70;99.90;;;;;;5030199;28;20224;-50
2022/03/03 08:21:00;;;;;;;20.70;16.27;;;2.70;99.90;;;;;;5030852;28;20264;-50
2022/03/03 08:23:29;;;;;;;24.40;16.53;;;2.60;99.90;;;;;;5028873;28;20929;-51
2022/03/03 08:25:58;;;;;;;20.30;15.33;;;2.70;99.90;;;;;;5030366;28;20344;-50
2022/03/03 08:28:29;;;;;;;22.20;17.48;;;2.80;99.90;;;;;;5030492;28;20096;-55
2022/03/03 08:31:01;;;;;;;21.97;17.80;;;2.80;99.90;;;;;;5030382;28;20230;-54
2022/03/03 08:33:40;;;;;;;18.50;14.67;;;2.90;99.90;;;;;;5017934;28;20210;-51
2022/03/03 08:36:17;;;;;;;21.93;16.70;;;2.90;99.90;;;;;;5026034;28;20226;-52
2022/03/03 08:38:50;;;;;;;19.43;14.07;;;3.00;99.90;;;;;;5030220;28;20210;-52
2022/03/03 08:41:22;;;;;;;22.63;16.33;;;3.10;99.90;;;;;;5029617;28;20272;-52
2022/03/03 08:43:54;;;;;;;20.67;15.10;;;3.10;99.90;;;;;;5015261;28;20211;-51
2022/03/03 08:46:25;;;;;;;20.47;15.10;;;3.10;99.90;;;;;;5027208;28;20202;-51
2022/03/03 08:48:54;;;;;;;17.50;14.27;;;3.20;99.90;;;;;;5029999;28;20242;-51
2022/03/03 08:51:23;;;;;;;18.63;14.77;;;3.20;99.90;;;;;;5029729;28;20276;-50
2022/03/03 08:53:51;;;;;;;17.53;14.07;;;3.30;99.90;;;;;;5029233;28;20675;-51
2022/03/03 08:56:19;;;;;;;18.83;15.47;;;3.40;99.90;;;;;;5029559;28;20221;-51
2022/03/03 08:58:48;;;;;;;17.97;13.77;;;3.60;99.90;;;;;;5014850;28;20259;-51
2022/03/03 09:01:17;;;;;;;20.87;15.07;;;3.60;99.90;;;;;;5026975;28;20242;-51
2022/03/03 09:03:45;;;;;;;18.87;14.70;;;3.70;99.90;;;;;;5029037;28;20212;-51
2022/03/03 09:06:14;;;;;;;19.20;14.50;;;3.80;99.90;;;;;;5023952;28;20289;-51
2022/03/03 09:08:42;;;;;;;20.37;15.27;;;3.90;99.90;;;;;;5017671;28;20214;-51
2022/03/03 09:11:11;;;;;;;20.07;15.43;;;4.00;99.90;;;;;;5029761;28;20222;-52
2022/03/03 09:13:39;;;;;;;19.00;14.70;;;4.10;99.90;;;;;;5028856;28;20276;-52
2022/03/03 09:16:13;;;;;;;25.60;14.93;;;4.10;99.90;;;;;;5010123;28;20239;-51
2022/03/03 09:18:43;;;;;;;18.97;14.30;;;4.20;99.90;;;;;;5009649;28;20268;-52
2022/03/03 09:21:11;;;;;;;18.87;14.40;;;4.30;99.90;;;;;;5017095;28;20227;-52
2022/03/03 09:23:39;;;;;;;17.00;14.30;;;4.40;99.90;;;;;;5028671;28;20896;-51
2022/03/03 09:26:07;;;;;;;21.10;14.27;;;4.50;99.90;;;;;;5029365;28;20350;-52
2022/03/03 09:28:36;;;;;;;20.70;14.67;;;4.60;99.90;;;;;;5029046;28;20615;-52
2022/03/03 09:31:04;;;;;;;19.97;15.00;;;4.70;99.90;;;;;;5029039;28;20228;-52
2022/03/03 09:33:32;;;;;;;18.27;14.47;;;4.80;99.90;;;;;;5028817;28;20219;-51
2022/03/03 09:36:02;;;;;;;21.57;14.40;;;4.80;99.90;;;;;;5028693;28;20759;-52
2022/03/03 09:38:30;;;;;;;17.53;14.70;;;4.90;99.90;;;;;;5029560;28;20213;-52
2022/03/03 09:40:58;;;;;;;16.97;14.57;;;5.00;99.90;;;;;;5028940;28;20656;-51
2022/03/03 09:43:28;;;;;;;17.87;14.63;;;5.10;99.90;;;;;;5028918;28;20204;-51
2022/03/03 09:45:56;;;;;;;20.63;14.27;;;5.20;99.90;;;;;;5029502;28;20277;-51
2022/03/03 09:48:24;;;;;;;18.37;14.50;;;5.20;99.90;;;;;;5029383;28;20378;-51
2022/03/03 09:50:52;;;;;;;18.60;14.83;;;5.30;99.90;;;;;;5028955;28;20237;-51
2022/03/03 09:53:22;;;;;;;17.77;13.97;;;5.30;99.90;;;;;;5028708;28;20208;-51
2022/03/03 09:55:51;;;;;;;17.20;12.97;;;5.40;99.90;;;;;;5029317;28;20264;-51
2022/03/03 09:58:19;;;;;;;15.50;12.53;;;5.40;99.90;;;;;;5028976;28;20210;-52
2022/03/03 10:00:47;;;;;;;13.20;10.63;;;5.50;99.90;;;;;;5029066;28;20298;-51
2022/03/03 10:03:17;;;;;;;13.10;11.03;;;5.70;99.90;;;;;;5028362;28;20301;-52
2022/03/03 10:05:48;;;;;;;12.47;10.27;;;5.80;99.90;;;;;;5031973;28;20216;-51
2022/03/03 10:08:18;;;;;;;13.87;10.93;;;5.80;99.90;;;;;;5013151;28;20211;-50
2022/03/03 10:10:49;;;;;;;13.20;10.63;;;5.90;97.40;;;;;;5013041;28;20793;-51
2022/03/03 10:13:18;;;;;;;11.33;9.53;;;6.00;97.30;;;;;;5012645;28;20209;-51
2022/03/03 10:15:52;;;;;;;14.53;9.67;;;6.10;96.40;;;;;;5012964;28;20226;-52
2022/03/03 10:18:21;;;;;;;12.67;9.50;;;6.20;95.20;;;;;;5011906;28;20217;-52
2022/03/03 10:20:52;;;;;;;12.27;10.43;;;6.20;94.00;;;;;;5013072;28;20269;-52
2022/03/03 10:23:24;;;;;;;14.13;10.93;;;6.20;94.40;;;;;;5012482;28;20210;-52
2022/03/03 10:25:55;;;;;;;12.73;9.87;;;6.20;93.20;;;;;;5012528;28;20195;-51
2022/03/03 10:28:25;;;;;;;13.57;10.77;;;6.20;92.30;;;;;;5012510;28;20688;-51
2022/03/03 10:31:01;;;;;;;13.63;10.20;;;6.30;92.10;;;;;;5012398;28;20276;-52
2022/03/03 10:33:30;;;;;;;11.97;9.73;;;6.30;91.70;;;;;;5014049;28;20209;-50
2022/03/03 10:36:05;;;;;;;15.03;10.60;;;6.30;92.00;;;;;;5032433;28;20272;-51
2022/03/03 10:38:35;;;;;;;14.63;10.23;;;6.40;92.70;;;;;;5032914;28;20206;-51
2022/03/03 10:41:05;;;;;;;11.67;10.20;;;6.40;92.20;;;;;;5031752;28;20229;-51
2022/03/03 10:43:48;;;;;;;11.43;10.03;;;6.40;92.10;;;;;;5031723;28;20718;-51
2022/03/03 10:46:17;;;;;;;13.43;9.60;;;6.50;91.10;;;;;;5031962;28;20202;-51
2022/03/03 10:48:45;;;;;;;13.00;10.20;;;6.50;90.90;;;;;;5032439;28;20210;-52
2022/03/03 10:51:16;;;;;;;12.80;10.20;;;6.50;90.20;;;;;;5017535;28;20285;-51
2022/03/03 10:53:44;;;;;;;12.23;9.87;;;6.60;90.60;;;;;;5027690;28;20218;-52
2022/03/03 10:56:17;;;;;;;13.20;10.63;;;6.60;90.80;;;;;;5031707;28;20308;-50
2022/03/03 10:58:47;;;;;;;12.60;10.20;;;6.60;87.20;;;;;;5018747;28;20207;-51
2022/03/03 11:01:18;;;;;;;13.90;11.60;;;6.60;90.30;;;;;;5026585;28;20242;-50
2022/03/03 11:03:49;;;;;;;15.53;11.93;;;6.60;88.60;;;;;;5030078;28;20214;-56
2022/03/03 11:06:19;;;;;;;13.03;11.07;;;6.60;90.20;;;;;;5030468;28;20221;-51
2022/03/03 11:08:52;;;;;;;14.00;11.70;;;6.70;89.60;;;;;;5030646;28;20253;-51
2022/03/03 11:11:23;;;;;;;13.03;10.77;;;6.70;90.80;;;;;;5028497;28;20284;-51
2022/03/03 11:13:52;;;;;;;15.50;11.70;;;6.80;91.20;;;;;;5029966;28;20210;-51
2022/03/03 11:16:23;;;;;;;14.07;10.50;;;6.80;90.00;;;;;;5029191;28;20224;-51
2022/03/03 11:18:51;;;;;;;13.00;10.73;;;6.90;87.70;;;;;;5029897;28;20215;-51
2022/03/03 11:21:20;;;;;;;13.43;10.30;;;6.90;88.50;;;;;;5030261;28;20233;-51
2022/03/03 11:23:54;;;;;;;14.33;11.33;;;6.90;90.00;;;;;;5029715;28;20297;-51
2022/03/03 11:26:26;;;;;;;15.33;11.30;;;7.00;89.00;;;;;;5030238;28;20205;-51
2022/03/03 11:29:02;;;;;;;12.63;10.53;;;7.10;87.70;;;;;;5030423;28;20212;-51
2022/03/03 11:31:32;;;;;;;15.07;11.27;;;7.00;86.90;;;;;;5030107;28;20223;-50
2022/03/03 11:34:23;;;;;;;15.03;10.23;;;7.00;86.80;;;;;;5029563;28;20258;-51
2022/03/03 11:36:59;;;;;;;14.20;11.13;;;7.10;84.80;;;;;;5029834;28;20217;-51
2022/03/03 11:39:49;;;;;;;12.17;10.67;;;7.10;86.00;;;;;;5030063;28;20556;-50
2022/03/03 11:42:30;;;;;;;12.67;9.80;;;7.10;86.70;;;;;;5029212;28;20208;-50
2022/03/03 11:45:00;;;;;;;12.13;10.20;;;7.20;85.80;;;;;;5030430;28;20216;-51
2022/03/03 11:47:30;;;;;;;11.13;9.70;;;7.30;86.30;;;;;;5030356;28;20188;-51
2022/03/03 11:50:06;;;;;;;10.67;8.90;;;7.40;87.60;;;;;;5030024;28;20277;-50
2022/03/03 11:52:37;;;;;;;11.93;10.27;;;7.50;82.90;;;;;;5019668;28;20455;-51
2022/03/03 11:55:31;;;;;;;12.87;10.50;;;7.70;81.60;;;;;;5009677;28;20269;-49
2022/03/03 11:58:04;;;;;;;12.20;9.73;;;7.60;81.60;;;;;;5012971;28;20702;-51
2022/03/03 12:00:33;;;;;;;11.37;8.70;;;7.60;80.30;;;;;;4990493;28;1125166;-51
2022/03/03 12:03:04;;;;;;;12.70;9.20;;;7.70;77.40;;;;;;5029554;28;20202;-51
2022/03/03 12:05:37;;;;;;;12.43;9.77;;;7.70;78.70;;;;;;5030351;28;20220;-51
2022/03/03 12:08:07;;;;;;;10.27;8.70;;;7.70;78.30;;;;;;5029810;28;20210;-52
2022/03/03 12:10:36;;;;;;;10.00;8.53;;;7.70;79.50;;;;;;5029656;28;20230;-51
2022/03/03 12:13:26;;;;;;;10.63;8.93;;;7.70;74.60;;;;;;5030223;28;20241;-51
2022/03/03 12:16:29;;;;;;;12.07;9.47;;;7.80;73.40;;;;;;5030295;28;20244;-51
2022/03/03 12:19:13;;;;;;;13.60;10.43;;;7.90;79.00;;;;;;4988067;28;20293;-51
2022/03/03 12:21:43;;;;;;;10.17;8.47;;;7.90;78.90;;;;;;4987594;28;20234;-51
2022/03/03 12:24:31;;;;;;;11.70;8.97;;;7.90;81.30;;;;;;5012587;28;20260;-51
2022/03/03 12:27:11;;;;;;;14.10;9.57;;;7.80;80.20;;;;;;5029962;28;20260;-51
2022/03/03 12:30:05;;;;;;;12.27;9.43;;;7.80;82.00;;;;;;5030515;28;20202;-52
2022/03/03 12:32:44;;;;;;;11.70;9.37;;;7.90;83.40;;;;;;5029408;28;20262;-52
2022/03/03 12:35:23;;;;;;;12.30;9.73;;;7.90;83.40;;;;;;5029964;28;20187;-51
2022/03/03 12:37:51;;;;;;;14.53;10.80;;;7.90;84.50;;;;;;5030068;28;20391;-51
2022/03/03 12:40:22;;;;;;;12.23;9.93;;;8.00;85.60;;;;;;5029421;28;20268;-51
2022/03/03 12:42:50;;;;;;;11.30;9.03;;;8.10;87.10;;;;;;5029451;28;20198;-51
2022/03/03 12:45:20;;;;;;;15.57;11.10;;;8.10;88.40;;;;;;5029635;28;20230;-52
2022/03/03 12:47:51;;;;;;;11.60;9.83;;;8.20;89.50;;;;;;5029774;28;20194;-51